sensor_id;sensor_type;location;lat;lon;timestamp;P1;durP1;ratioP1;P2;durP2;ratioP2
54332;SDS011;40230;41.860;21.940;2022-11-14T00:02:11;19.63;;;15.77;;
54332;SDS011;40230;41.860;21.940;2022-11-14T00:04:40;19.50;;;15.07;;
54332;SDS011;40230;41.860;21.940;2022-11-14T00:07:06;18.13;;;14.77;;
54332;SDS011;40230;41.860;21.940;2022-11-14T00:09:32;21.38;;;16.40;;
54332;SDS011;40230;41.860;21.940;2022-11-14T00:11:58;21.35;;;17.23;;
54332;SDS011;40230;41.860;21.940;2022-11-14T00:14:24;20.73;;;16.50;;
54332;SDS011;40230;41.860;21.940;2022-11-14T00:16:50;23.92;;;17.60;;
54332;SDS011;40230;41.860;21.940;2022-11-14T00:19:16;24.02;;;18.27;;
54332;SDS011;40230;41.860;21.940;2022-11-14T00:21:42;20.48;;;16.13;;
54332;SDS011;40230;41.860;21.940;2022-11-14T00:24:08;21.42;;;16.98;;
54332;SDS011;40230;41.860;21.940;2022-11-14T00:26:34;20.98;;;16.60;;
54332;SDS011;40230;41.860;21.940;2022-11-14T00:29:00;18.08;;;14.55;;
54332;SDS011;40230;41.860;21.940;2022-11-14T00:31:26;23.23;;;17.90;;
54332;SDS011;40230;41.860;21.940;2022-11-14T00:33:53;23.75;;;17.27;;
54332;SDS011;40230;41.860;21.940;2022-11-14T00:36:19;22.23;;;17.27;;
54332;SDS011;40230;41.860;21.940;2022-11-14T00:38:45;24.33;;;16.95;;
54332;SDS011;40230;41.860;21.940;2022-11-14T00:41:11;20.70;;;17.20;;
54332;SDS011;40230;41.860;21.940;2022-11-14T00:43:37;18.67;;;16.02;;
54332;SDS011;40230;41.860;21.940;2022-11-14T00:46:03;20.83;;;15.65;;
54332;SDS011;40230;41.860;21.940;2022-11-14T00:48:29;18.90;;;14.82;;
54332;SDS011;40230;41.860;21.940;2022-11-14T00:50:55;18.25;;;15.35;;
54332;SDS011;40230;41.860;21.940;2022-11-14T00:53:21;18.45;;;14.48;;
54332;SDS011;40230;41.860;21.940;2022-11-14T00:55:47;18.45;;;13.85;;
54332;SDS011;40230;41.860;21.940;2022-11-14T00:58:13;20.67;;;13.82;;
54332;SDS011;40230;41.860;21.940;2022-11-14T01:00:40;19.98;;;13.32;;
54332;SDS011;40230;41.860;21.940;2022-11-14T01:03:06;17.90;;;14.65;;
54332;SDS011;40230;41.860;21.940;2022-11-14T01:05:32;18.58;;;14.23;;
54332;SDS011;40230;41.860;21.940;2022-11-14T01:07:58;18.73;;;14.55;;
54332;SDS011;40230;41.860;21.940;2022-11-14T01:10:24;20.15;;;15.20;;
54332;SDS011;40230;41.860;21.940;2022-11-14T01:12:50;20.80;;;16.98;;
54332;SDS011;40230;41.860;21.940;2022-11-14T01:15:16;20.50;;;16.70;;
54332;SDS011;40230;41.860;21.940;2022-11-14T01:17:42;20.25;;;15.23;;
54332;SDS011;40230;41.860;21.940;2022-11-14T01:20:08;21.13;;;16.35;;
54332;SDS011;40230;41.860;21.940;2022-11-14T01:22:34;19.80;;;14.63;;
54332;SDS011;40230;41.860;21.940;2022-11-14T01:25:00;20.08;;;15.50;;
54332;SDS011;40230;41.860;21.940;2022-11-14T01:27:29;17.42;;;13.20;;
54332;SDS011;40230;41.860;21.940;2022-11-14T01:29:55;27.52;;;16.33;;
54332;SDS011;40230;41.860;21.940;2022-11-14T01:32:22;19.63;;;15.35;;
54332;SDS011;40230;41.860;21.940;2022-11-14T01:34:48;19.80;;;15.45;;
54332;SDS011;40230;41.860;21.940;2022-11-14T01:37:14;17.73;;;14.68;;
54332;SDS011;40230;41.860;21.940;2022-11-14T01:39:40;20.58;;;16.42;;
54332;SDS011;40230;41.860;21.940;2022-11-14T01:42:06;19.40;;;15.55;;
54332;SDS011;40230;41.860;21.940;2022-11-14T01:44:45;22.13;;;15.38;;
54332;SDS011;40230;41.860;21.940;2022-11-14T01:47:12;19.13;;;14.68;;
54332;SDS011;40230;41.860;21.940;2022-11-14T01:49:41;21.23;;;16.80;;
54332;SDS011;40230;41.860;21.940;2022-11-14T01:52:16;17.95;;;15.77;;
54332;SDS011;40230;41.860;21.940;2022-11-14T01:54:47;18.73;;;14.32;;
54332;SDS011;40230;41.860;21.940;2022-11-14T01:57:14;18.20;;;15.35;;
54332;SDS011;40230;41.860;21.940;2022-11-14T01:59:43;19.02;;;14.98;;
54332;SDS011;40230;41.860;21.940;2022-11-14T02:02:11;21.77;;;16.40;;
54332;SDS011;40230;41.860;21.940;2022-11-14T02:04:40;23.48;;;16.27;;
54332;SDS011;40230;41.860;21.940;2022-11-14T02:07:07;21.27;;;16.00;;
54332;SDS011;40230;41.860;21.940;2022-11-14T02:09:34;19.00;;;15.45;;
54332;SDS011;40230;41.860;21.940;2022-11-14T02:12:02;18.58;;;14.70;;
54332;SDS011;40230;41.860;21.940;2022-11-14T02:14:30;20.27;;;14.98;;
54332;SDS011;40230;41.860;21.940;2022-11-14T02:16:57;22.30;;;15.45;;
54332;SDS011;40230;41.860;21.940;2022-11-14T02:19:23;16.83;;;13.82;;
54332;SDS011;40230;41.860;21.940;2022-11-14T02:21:49;18.08;;;14.60;;
54332;SDS011;40230;41.860;21.940;2022-11-14T02:24:15;16.75;;;14.40;;
54332;SDS011;40230;41.860;21.940;2022-11-14T02:26:41;19.05;;;14.68;;
54332;SDS011;40230;41.860;21.940;2022-11-14T02:29:08;20.23;;;14.77;;
54332;SDS011;40230;41.860;21.940;2022-11-14T02:31:35;18.17;;;14.60;;
54332;SDS011;40230;41.860;21.940;2022-11-14T02:34:01;18.90;;;14.68;;
54332;SDS011;40230;41.860;21.940;2022-11-14T02:36:27;19.33;;;14.57;;
54332;SDS011;40230;41.860;21.940;2022-11-14T02:38:53;19.25;;;15.18;;
54332;SDS011;40230;41.860;21.940;2022-11-14T02:41:19;21.63;;;14.07;;
54332;SDS011;40230;41.860;21.940;2022-11-14T02:43:45;19.23;;;14.82;;
54332;SDS011;40230;41.860;21.940;2022-11-14T02:46:12;21.58;;;15.65;;
54332;SDS011;40230;41.860;21.940;2022-11-14T02:48:38;23.83;;;16.48;;
54332;SDS011;40230;41.860;21.940;2022-11-14T02:51:04;20.52;;;15.60;;
54332;SDS011;40230;41.860;21.940;2022-11-14T02:53:30;21.30;;;15.35;;
54332;SDS011;40230;41.860;21.940;2022-11-14T02:55:56;26.13;;;16.77;;
54332;SDS011;40230;41.860;21.940;2022-11-14T02:58:22;20.35;;;15.75;;
54332;SDS011;40230;41.860;21.940;2022-11-14T03:00:48;23.70;;;15.73;;
54332;SDS011;40230;41.860;21.940;2022-11-14T03:03:14;19.80;;;15.43;;
54332;SDS011;40230;41.860;21.940;2022-11-14T03:05:40;18.45;;;14.35;;
54332;SDS011;40230;41.860;21.940;2022-11-14T03:08:06;21.08;;;14.80;;
54332;SDS011;40230;41.860;21.940;2022-11-14T03:10:32;21.52;;;15.70;;
54332;SDS011;40230;41.860;21.940;2022-11-14T03:12:58;20.33;;;15.65;;
54332;SDS011;40230;41.860;21.940;2022-11-14T03:15:24;21.85;;;17.63;;
54332;SDS011;40230;41.860;21.940;2022-11-14T03:17:50;25.38;;;18.17;;
54332;SDS011;40230;41.860;21.940;2022-11-14T03:20:17;23.60;;;18.45;;
54332;SDS011;40230;41.860;21.940;2022-11-14T03:22:43;23.83;;;18.00;;
54332;SDS011;40230;41.860;21.940;2022-11-14T03:25:09;25.60;;;19.33;;
54332;SDS011;40230;41.860;21.940;2022-11-14T03:27:35;21.17;;;17.02;;
54332;SDS011;40230;41.860;21.940;2022-11-14T03:30:01;24.13;;;17.58;;
54332;SDS011;40230;41.860;21.940;2022-11-14T03:32:27;23.30;;;17.30;;
54332;SDS011;40230;41.860;21.940;2022-11-14T03:34:53;20.92;;;16.70;;
54332;SDS011;40230;41.860;21.940;2022-11-14T03:37:19;23.10;;;16.75;;
54332;SDS011;40230;41.860;21.940;2022-11-14T03:39:45;22.33;;;16.73;;
54332;SDS011;40230;41.860;21.940;2022-11-14T03:42:11;22.13;;;16.83;;
54332;SDS011;40230;41.860;21.940;2022-11-14T03:44:38;20.58;;;15.60;;
54332;SDS011;40230;41.860;21.940;2022-11-14T03:47:04;21.40;;;16.30;;
54332;SDS011;40230;41.860;21.940;2022-11-14T03:49:30;23.40;;;17.52;;
54332;SDS011;40230;41.860;21.940;2022-11-14T03:51:56;22.17;;;16.95;;
54332;SDS011;40230;41.860;21.940;2022-11-14T03:54:22;18.33;;;14.45;;
54332;SDS011;40230;41.860;21.940;2022-11-14T03:56:48;20.73;;;15.25;;
54332;SDS011;40230;41.860;21.940;2022-11-14T03:59:14;19.08;;;15.85;;
54332;SDS011;40230;41.860;21.940;2022-11-14T04:01:40;19.95;;;14.73;;
54332;SDS011;40230;41.860;21.940;2022-11-14T04:04:06;18.10;;;13.98;;
54332;SDS011;40230;41.860;21.940;2022-11-14T04:06:32;17.90;;;14.18;;
54332;SDS011;40230;41.860;21.940;2022-11-14T04:08:58;20.73;;;15.50;;
54332;SDS011;40230;41.860;21.940;2022-11-14T04:11:25;21.92;;;14.77;;
54332;SDS011;40230;41.860;21.940;2022-11-14T04:13:51;22.17;;;14.75;;
54332;SDS011;40230;41.860;21.940;2022-11-14T04:16:17;20.27;;;15.80;;
54332;SDS011;40230;41.860;21.940;2022-11-14T04:18:43;23.73;;;15.65;;
54332;SDS011;40230;41.860;21.940;2022-11-14T04:21:09;24.40;;;16.40;;
54332;SDS011;40230;41.860;21.940;2022-11-14T04:23:35;25.52;;;15.65;;
54332;SDS011;40230;41.860;21.940;2022-11-14T04:26:01;20.00;;;15.15;;
54332;SDS011;40230;41.860;21.940;2022-11-14T04:28:28;21.10;;;16.08;;
54332;SDS011;40230;41.860;21.940;2022-11-14T04:30:54;18.80;;;14.52;;
54332;SDS011;40230;41.860;21.940;2022-11-14T04:33:20;20.83;;;15.75;;
54332;SDS011;40230;41.860;21.940;2022-11-14T04:35:46;23.73;;;16.52;;
54332;SDS011;40230;41.860;21.940;2022-11-14T04:38:12;20.85;;;15.60;;
54332;SDS011;40230;41.860;21.940;2022-11-14T04:40:38;21.88;;;15.65;;
54332;SDS011;40230;41.860;21.940;2022-11-14T04:43:05;22.95;;;17.55;;
54332;SDS011;40230;41.860;21.940;2022-11-14T04:45:31;21.65;;;16.20;;
54332;SDS011;40230;41.860;21.940;2022-11-14T04:47:57;22.92;;;16.13;;
54332;SDS011;40230;41.860;21.940;2022-11-14T04:50:23;22.10;;;17.05;;
54332;SDS011;40230;41.860;21.940;2022-11-14T04:52:50;26.20;;;18.30;;
54332;SDS011;40230;41.860;21.940;2022-11-14T04:55:17;28.75;;;19.42;;
54332;SDS011;40230;41.860;21.940;2022-11-14T04:57:43;23.70;;;17.70;;
54332;SDS011;40230;41.860;21.940;2022-11-14T05:00:09;20.30;;;17.33;;
54332;SDS011;40230;41.860;21.940;2022-11-14T05:02:36;22.90;;;16.52;;
54332;SDS011;40230;41.860;21.940;2022-11-14T05:05:02;20.90;;;16.85;;
54332;SDS011;40230;41.860;21.940;2022-11-14T05:07:28;22.73;;;17.58;;
54332;SDS011;40230;41.860;21.940;2022-11-14T05:09:54;22.30;;;17.45;;
54332;SDS011;40230;41.860;21.940;2022-11-14T05:12:20;27.48;;;17.55;;
54332;SDS011;40230;41.860;21.940;2022-11-14T05:14:46;25.52;;;19.00;;
54332;SDS011;40230;41.860;21.940;2022-11-14T05:17:13;26.40;;;17.88;;
54332;SDS011;40230;41.860;21.940;2022-11-14T05:19:40;41.03;;;28.00;;
54332;SDS011;40230;41.860;21.940;2022-11-14T05:22:06;40.63;;;27.75;;
54332;SDS011;40230;41.860;21.940;2022-11-14T05:24:32;38.15;;;27.65;;
54332;SDS011;40230;41.860;21.940;2022-11-14T05:26:58;32.15;;;23.33;;
54332;SDS011;40230;41.860;21.940;2022-11-14T05:29:24;26.80;;;20.80;;
54332;SDS011;40230;41.860;21.940;2022-11-14T05:31:50;25.80;;;19.63;;
54332;SDS011;40230;41.860;21.940;2022-11-14T05:34:17;25.88;;;19.25;;
54332;SDS011;40230;41.860;21.940;2022-11-14T05:36:43;26.85;;;18.85;;
54332;SDS011;40230;41.860;21.940;2022-11-14T05:39:09;25.25;;;18.08;;
54332;SDS011;40230;41.860;21.940;2022-11-14T05:41:35;78.13;;;55.97;;
54332;SDS011;40230;41.860;21.940;2022-11-14T05:44:03;38.75;;;27.27;;
54332;SDS011;40230;41.860;21.940;2022-11-14T05:46:29;31.40;;;18.70;;
54332;SDS011;40230;41.860;21.940;2022-11-14T05:48:55;29.17;;;21.08;;
54332;SDS011;40230;41.860;21.940;2022-11-14T05:51:21;33.80;;;26.48;;
54332;SDS011;40230;41.860;21.940;2022-11-14T05:53:47;32.55;;;26.95;;
54332;SDS011;40230;41.860;21.940;2022-11-14T05:56:13;32.33;;;27.23;;
54332;SDS011;40230;41.860;21.940;2022-11-14T05:58:39;34.45;;;25.58;;
54332;SDS011;40230;41.860;21.940;2022-11-14T06:01:09;34.78;;;26.38;;
54332;SDS011;40230;41.860;21.940;2022-11-14T06:03:40;32.38;;;28.40;;
54332;SDS011;40230;41.860;21.940;2022-11-14T06:06:08;30.25;;;25.73;;
54332;SDS011;40230;41.860;21.940;2022-11-14T06:08:34;32.97;;;25.58;;
54332;SDS011;40230;41.860;21.940;2022-11-14T06:11:02;32.72;;;23.70;;
54332;SDS011;40230;41.860;21.940;2022-11-14T06:13:28;28.45;;;22.08;;
54332;SDS011;40230;41.860;21.940;2022-11-14T06:16:01;29.65;;;22.67;;
54332;SDS011;40230;41.860;21.940;2022-11-14T06:18:28;30.20;;;22.95;;
54332;SDS011;40230;41.860;21.940;2022-11-14T06:20:57;31.70;;;23.08;;
54332;SDS011;40230;41.860;21.940;2022-11-14T06:23:24;65.97;;;45.53;;
54332;SDS011;40230;41.860;21.940;2022-11-14T06:25:50;46.60;;;35.45;;
54332;SDS011;40230;41.860;21.940;2022-11-14T06:28:17;45.10;;;34.67;;
54332;SDS011;40230;41.860;21.940;2022-11-14T06:30:43;47.08;;;32.85;;
54332;SDS011;40230;41.860;21.940;2022-11-14T06:33:09;54.45;;;41.22;;
54332;SDS011;40230;41.860;21.940;2022-11-14T06:35:35;59.20;;;43.75;;
54332;SDS011;40230;41.860;21.940;2022-11-14T06:38:02;64.70;;;44.42;;
54332;SDS011;40230;41.860;21.940;2022-11-14T06:40:28;85.32;;;58.08;;
54332;SDS011;40230;41.860;21.940;2022-11-14T06:42:54;87.95;;;58.95;;
54332;SDS011;40230;41.860;21.940;2022-11-14T06:45:20;76.20;;;47.97;;
54332;SDS011;40230;41.860;21.940;2022-11-14T06:47:46;75.20;;;47.25;;
54332;SDS011;40230;41.860;21.940;2022-11-14T06:50:12;72.13;;;42.83;;
54332;SDS011;40230;41.860;21.940;2022-11-14T06:52:39;64.28;;;39.60;;
54332;SDS011;40230;41.860;21.940;2022-11-14T06:55:08;60.60;;;37.17;;
54332;SDS011;40230;41.860;21.940;2022-11-14T06:57:34;67.78;;;41.95;;
54332;SDS011;40230;41.860;21.940;2022-11-14T07:00:00;69.03;;;43.10;;
54332;SDS011;40230;41.860;21.940;2022-11-14T07:02:26;80.88;;;59.35;;
54332;SDS011;40230;41.860;21.940;2022-11-14T07:04:53;144.90;;;116.32;;
54332;SDS011;40230;41.860;21.940;2022-11-14T07:07:19;69.00;;;48.40;;
54332;SDS011;40230;41.860;21.940;2022-11-14T07:09:45;54.17;;;41.65;;
54332;SDS011;40230;41.860;21.940;2022-11-14T07:12:17;35.28;;;26.40;;
54332;SDS011;40230;41.860;21.940;2022-11-14T07:14:43;36.58;;;27.08;;
54332;SDS011;40230;41.860;21.940;2022-11-14T07:17:09;28.60;;;20.98;;
54332;SDS011;40230;41.860;21.940;2022-11-14T07:19:36;40.78;;;23.58;;
54332;SDS011;40230;41.860;21.940;2022-11-14T07:22:02;33.88;;;20.48;;
54332;SDS011;40230;41.860;21.940;2022-11-14T07:24:28;47.35;;;27.25;;
54332;SDS011;40230;41.860;21.940;2022-11-14T07:26:54;38.40;;;23.55;;
54332;SDS011;40230;41.860;21.940;2022-11-14T07:29:20;54.08;;;28.42;;
54332;SDS011;40230;41.860;21.940;2022-11-14T07:31:46;89.10;;;37.15;;
54332;SDS011;40230;41.860;21.940;2022-11-14T07:34:12;82.68;;;36.47;;
54332;SDS011;40230;41.860;21.940;2022-11-14T07:36:39;56.33;;;27.38;;
54332;SDS011;40230;41.860;21.940;2022-11-14T07:39:05;74.78;;;32.55;;
54332;SDS011;40230;41.860;21.940;2022-11-14T07:41:31;54.30;;;28.15;;
54332;SDS011;40230;41.860;21.940;2022-11-14T07:43:57;63.70;;;29.02;;
54332;SDS011;40230;41.860;21.940;2022-11-14T07:46:23;52.97;;;27.90;;
54332;SDS011;40230;41.860;21.940;2022-11-14T07:48:49;44.30;;;24.33;;
54332;SDS011;40230;41.860;21.940;2022-11-14T07:51:16;41.53;;;24.60;;
54332;SDS011;40230;41.860;21.940;2022-11-14T07:53:43;44.28;;;26.13;;
54332;SDS011;40230;41.860;21.940;2022-11-14T07:56:09;63.65;;;30.52;;
54332;SDS011;40230;41.860;21.940;2022-11-14T07:58:39;73.97;;;31.48;;
54332;SDS011;40230;41.860;21.940;2022-11-14T08:01:06;61.28;;;29.67;;
54332;SDS011;40230;41.860;21.940;2022-11-14T08:03:32;52.13;;;26.42;;
54332;SDS011;40230;41.860;21.940;2022-11-14T08:06:02;46.17;;;25.63;;
54332;SDS011;40230;41.860;21.940;2022-11-14T08:08:28;46.22;;;24.33;;
54332;SDS011;40230;41.860;21.940;2022-11-14T08:10:55;44.67;;;23.25;;
54332;SDS011;40230;41.860;21.940;2022-11-14T08:13:21;32.28;;;20.70;;
54332;SDS011;40230;41.860;21.940;2022-11-14T08:15:48;43.75;;;23.15;;
54332;SDS011;40230;41.860;21.940;2022-11-14T08:18:14;40.22;;;22.92;;
54332;SDS011;40230;41.860;21.940;2022-11-14T08:20:40;41.72;;;22.45;;
54332;SDS011;40230;41.860;21.940;2022-11-14T08:23:11;215.13;;;73.60;;
54332;SDS011;40230;41.860;21.940;2022-11-14T08:25:45;114.60;;;49.58;;
54332;SDS011;40230;41.860;21.940;2022-11-14T08:28:11;41.53;;;23.63;;
54332;SDS011;40230;41.860;21.940;2022-11-14T08:30:37;38.42;;;22.88;;
54332;SDS011;40230;41.860;21.940;2022-11-14T08:33:03;32.88;;;20.65;;
54332;SDS011;40230;41.860;21.940;2022-11-14T08:35:30;24.70;;;18.80;;
54332;SDS011;40230;41.860;21.940;2022-11-14T08:37:57;27.60;;;18.67;;
54332;SDS011;40230;41.860;21.940;2022-11-14T08:40:23;38.65;;;27.92;;
54332;SDS011;40230;41.860;21.940;2022-11-14T08:42:57;46.88;;;24.30;;
54332;SDS011;40230;41.860;21.940;2022-11-14T08:45:46;67.20;;;35.97;;
54332;SDS011;40230;41.860;21.940;2022-11-14T08:48:21;47.63;;;25.63;;
54332;SDS011;40230;41.860;21.940;2022-11-14T08:50:47;44.25;;;24.48;;
54332;SDS011;40230;41.860;21.940;2022-11-14T08:53:13;38.17;;;22.17;;
54332;SDS011;40230;41.860;21.940;2022-11-14T08:55:43;33.92;;;21.60;;
54332;SDS011;40230;41.860;21.940;2022-11-14T08:58:09;28.35;;;20.05;;
54332;SDS011;40230;41.860;21.940;2022-11-14T09:00:35;27.70;;;19.38;;
54332;SDS011;40230;41.860;21.940;2022-11-14T09:03:08;29.17;;;19.42;;
54332;SDS011;40230;41.860;21.940;2022-11-14T09:05:40;24.40;;;19.80;;
54332;SDS011;40230;41.860;21.940;2022-11-14T09:10:58;22.45;;;17.05;;
54332;SDS011;40230;41.860;21.940;2022-11-14T09:13:25;23.67;;;18.15;;
54332;SDS011;40230;41.860;21.940;2022-11-14T09:15:51;23.20;;;16.63;;
54332;SDS011;40230;41.860;21.940;2022-11-14T09:18:17;40.08;;;27.38;;
54332;SDS011;40230;41.860;21.940;2022-11-14T09:20:43;28.40;;;19.35;;
54332;SDS011;40230;41.860;21.940;2022-11-14T09:23:10;27.02;;;17.23;;
54332;SDS011;40230;41.860;21.940;2022-11-14T09:25:36;25.65;;;19.20;;
54332;SDS011;40230;41.860;21.940;2022-11-14T09:28:03;33.38;;;20.25;;
54332;SDS011;40230;41.860;21.940;2022-11-14T09:30:29;33.53;;;25.90;;
54332;SDS011;40230;41.860;21.940;2022-11-14T09:32:57;21.30;;;17.30;;
54332;SDS011;40230;41.860;21.940;2022-11-14T09:35:37;76.93;;;37.15;;
54332;SDS011;40230;41.860;21.940;2022-11-14T09:38:04;43.88;;;26.05;;
54332;SDS011;40230;41.860;21.940;2022-11-14T09:45:54;23.67;;;16.48;;
54332;SDS011;40230;41.860;21.940;2022-11-14T09:48:21;21.83;;;16.83;;
54332;SDS011;40230;41.860;21.940;2022-11-14T09:50:59;24.65;;;17.27;;
54332;SDS011;40230;41.860;21.940;2022-11-14T09:55:55;39.17;;;21.73;;
54332;SDS011;40230;41.860;21.940;2022-11-14T09:58:22;71.95;;;34.08;;
54332;SDS011;40230;41.860;21.940;2022-11-14T10:03:42;49.33;;;26.92;;
54332;SDS011;40230;41.860;21.940;2022-11-14T10:35:01;19.38;;;14.35;;
54332;SDS011;40230;41.860;21.940;2022-11-14T10:37:30;17.65;;;13.70;;
54332;SDS011;40230;41.860;21.940;2022-11-14T10:42:47;15.25;;;13.55;;
54332;SDS011;40230;41.860;21.940;2022-11-14T10:48:11;19.73;;;17.02;;
54332;SDS011;40230;41.860;21.940;2022-11-14T10:51:02;17.67;;;13.90;;
54332;SDS011;40230;41.860;21.940;2022-11-14T10:56:16;17.85;;;13.73;;
54332;SDS011;40230;41.860;21.940;2022-11-14T10:58:42;17.40;;;14.15;;
54332;SDS011;40230;41.860;21.940;2022-11-14T11:09:08;16.58;;;12.13;;
54332;SDS011;40230;41.860;21.940;2022-11-14T11:11:56;14.85;;;12.25;;
54332;SDS011;40230;41.860;21.940;2022-11-14T11:14:22;17.23;;;13.30;;
54332;SDS011;40230;41.860;21.940;2022-11-14T11:16:49;16.67;;;13.95;;
54332;SDS011;40230;41.860;21.940;2022-11-14T11:19:32;19.67;;;13.75;;
54332;SDS011;40230;41.860;21.940;2022-11-14T11:21:58;20.05;;;15.73;;
54332;SDS011;40230;41.860;21.940;2022-11-14T11:24:33;18.35;;;14.88;;
54332;SDS011;40230;41.860;21.940;2022-11-14T11:29:45;14.75;;;12.35;;
54332;SDS011;40230;41.860;21.940;2022-11-14T11:32:11;16.75;;;13.07;;
54332;SDS011;40230;41.860;21.940;2022-11-14T11:34:54;16.48;;;13.00;;
54332;SDS011;40230;41.860;21.940;2022-11-14T11:37:23;14.48;;;12.20;;
54332;SDS011;40230;41.860;21.940;2022-11-14T11:39:51;17.05;;;13.50;;
54332;SDS011;40230;41.860;21.940;2022-11-14T11:45:18;19.40;;;12.90;;
54332;SDS011;40230;41.860;21.940;2022-11-14T11:50:28;19.63;;;13.73;;
54332;SDS011;40230;41.860;21.940;2022-11-14T11:55:24;19.90;;;14.20;;
54332;SDS011;40230;41.860;21.940;2022-11-14T11:58:09;21.15;;;15.30;;
54332;SDS011;40230;41.860;21.940;2022-11-14T12:00:36;18.48;;;13.60;;
54332;SDS011;40230;41.860;21.940;2022-11-14T12:03:03;16.45;;;13.20;;
54332;SDS011;40230;41.860;21.940;2022-11-14T12:05:36;19.02;;;12.85;;
54332;SDS011;40230;41.860;21.940;2022-11-14T12:08:11;17.63;;;13.02;;
54332;SDS011;40230;41.860;21.940;2022-11-14T12:10:39;19.02;;;13.18;;
54332;SDS011;40230;41.860;21.940;2022-11-14T12:13:21;17.92;;;12.75;;
54332;SDS011;40230;41.860;21.940;2022-11-14T12:31:23;23.90;;;15.52;;
54332;SDS011;40230;41.860;21.940;2022-11-14T12:33:53;36.92;;;21.80;;
54332;SDS011;40230;41.860;21.940;2022-11-14T12:36:22;34.53;;;21.20;;
54332;SDS011;40230;41.860;21.940;2022-11-14T12:38:52;60.72;;;27.75;;
54332;SDS011;40230;41.860;21.940;2022-11-14T12:43:51;111.70;;;46.20;;
54332;SDS011;40230;41.860;21.940;2022-11-14T12:46:17;52.45;;;26.10;;
54332;SDS011;40230;41.860;21.940;2022-11-14T12:48:44;50.53;;;25.33;;
54332;SDS011;40230;41.860;21.940;2022-11-14T13:15:18;14.43;;;11.50;;
54332;SDS011;40230;41.860;21.940;2022-11-14T13:18:14;15.80;;;9.82;;
54332;SDS011;40230;41.860;21.940;2022-11-14T13:23:52;13.73;;;10.17;;
54332;SDS011;40230;41.860;21.940;2022-11-14T13:28:47;14.82;;;10.85;;
54332;SDS011;40230;41.860;21.940;2022-11-14T13:33:40;20.35;;;12.70;;
54332;SDS011;40230;41.860;21.940;2022-11-14T13:36:10;12.18;;;9.98;;
54332;SDS011;40230;41.860;21.940;2022-11-14T13:46:27;14.60;;;11.60;;
54332;SDS011;40230;41.860;21.940;2022-11-14T13:51:24;18.90;;;11.52;;
54332;SDS011;40230;41.860;21.940;2022-11-14T13:53:51;18.27;;;12.07;;
54332;SDS011;40230;41.860;21.940;2022-11-14T14:11:34;12.75;;;10.05;;
54332;SDS011;40230;41.860;21.940;2022-11-14T14:26:56;22.75;;;14.05;;
54332;SDS011;40230;41.860;21.940;2022-11-14T14:29:31;28.67;;;15.90;;
54332;SDS011;40230;41.860;21.940;2022-11-14T14:32:17;14.93;;;11.05;;
54332;SDS011;40230;41.860;21.940;2022-11-14T14:34:43;18.10;;;11.32;;
54332;SDS011;40230;41.860;21.940;2022-11-14T14:37:23;20.15;;;13.18;;
54332;SDS011;40230;41.860;21.940;2022-11-14T14:42:22;35.33;;;18.00;;
54332;SDS011;40230;41.860;21.940;2022-11-14T14:44:49;16.05;;;10.55;;
54332;SDS011;40230;41.860;21.940;2022-11-14T14:50:04;20.13;;;12.25;;
54332;SDS011;40230;41.860;21.940;2022-11-14T14:52:33;23.98;;;15.07;;
54332;SDS011;40230;41.860;21.940;2022-11-14T14:55:01;22.48;;;15.43;;
54332;SDS011;40230;41.860;21.940;2022-11-14T14:57:28;29.67;;;17.85;;
54332;SDS011;40230;41.860;21.940;2022-11-14T15:02:26;35.10;;;21.83;;
54332;SDS011;40230;41.860;21.940;2022-11-14T15:04:53;26.95;;;18.80;;
54332;SDS011;40230;41.860;21.940;2022-11-14T15:07:21;63.97;;;45.72;;
54332;SDS011;40230;41.860;21.940;2022-11-14T15:09:52;89.97;;;49.92;;
54332;SDS011;40230;41.860;21.940;2022-11-14T15:12:18;86.03;;;49.63;;
54332;SDS011;40230;41.860;21.940;2022-11-14T15:14:44;90.15;;;50.35;;
54332;SDS011;40230;41.860;21.940;2022-11-14T15:17:11;114.95;;;58.65;;
54332;SDS011;40230;41.860;21.940;2022-11-14T15:19:41;124.75;;;64.03;;
54332;SDS011;40230;41.860;21.940;2022-11-14T15:27:45;99.95;;;63.00;;
54332;SDS011;40230;41.860;21.940;2022-11-14T15:30:19;70.13;;;50.00;;
54332;SDS011;40230;41.860;21.940;2022-11-14T15:32:46;75.73;;;47.30;;
54332;SDS011;40230;41.860;21.940;2022-11-14T15:40:31;50.17;;;33.72;;
54332;SDS011;40230;41.860;21.940;2022-11-14T15:42:57;111.97;;;60.40;;
54332;SDS011;40230;41.860;21.940;2022-11-14T15:45:28;112.78;;;69.45;;
54332;SDS011;40230;41.860;21.940;2022-11-14T15:48:00;85.30;;;64.88;;
54332;SDS011;40230;41.860;21.940;2022-11-14T15:50:33;59.78;;;46.40;;
54332;SDS011;40230;41.860;21.940;2022-11-14T15:53:03;65.63;;;45.03;;
54332;SDS011;40230;41.860;21.940;2022-11-14T15:55:29;83.78;;;53.22;;
54332;SDS011;40230;41.860;21.940;2022-11-14T15:57:55;85.25;;;59.10;;
54332;SDS011;40230;41.860;21.940;2022-11-14T16:00:22;89.82;;;67.95;;
54332;SDS011;40230;41.860;21.940;2022-11-14T16:02:52;93.10;;;67.82;;
54332;SDS011;40230;41.860;21.940;2022-11-14T16:05:23;96.25;;;65.75;;
54332;SDS011;40230;41.860;21.940;2022-11-14T16:07:50;78.18;;;56.00;;
54332;SDS011;40230;41.860;21.940;2022-11-14T16:12:43;112.32;;;89.72;;
54332;SDS011;40230;41.860;21.940;2022-11-14T16:15:09;181.32;;;149.35;;
54332;SDS011;40230;41.860;21.940;2022-11-14T16:17:36;122.13;;;99.57;;
54332;SDS011;40230;41.860;21.940;2022-11-14T16:20:06;71.95;;;55.83;;
54332;SDS011;40230;41.860;21.940;2022-11-14T16:22:32;48.75;;;41.38;;
54332;SDS011;40230;41.860;21.940;2022-11-14T16:24:59;95.28;;;73.78;;
54332;SDS011;40230;41.860;21.940;2022-11-14T16:27:25;106.82;;;86.72;;
54332;SDS011;40230;41.860;21.940;2022-11-14T16:29:52;88.72;;;70.50;;
54332;SDS011;40230;41.860;21.940;2022-11-14T16:32:18;96.28;;;79.38;;
54332;SDS011;40230;41.860;21.940;2022-11-14T16:34:44;76.60;;;59.80;;
54332;SDS011;40230;41.860;21.940;2022-11-14T16:37:11;56.20;;;44.70;;
54332;SDS011;40230;41.860;21.940;2022-11-14T16:39:38;68.00;;;55.83;;
54332;SDS011;40230;41.860;21.940;2022-11-14T16:42:04;101.60;;;81.72;;
54332;SDS011;40230;41.860;21.940;2022-11-14T16:44:31;118.00;;;95.90;;
54332;SDS011;40230;41.860;21.940;2022-11-14T16:46:57;122.13;;;96.63;;
54332;SDS011;40230;41.860;21.940;2022-11-14T16:49:24;120.15;;;98.43;;
54332;SDS011;40230;41.860;21.940;2022-11-14T16:51:50;114.82;;;90.38;;
54332;SDS011;40230;41.860;21.940;2022-11-14T16:54:17;130.60;;;104.70;;
54332;SDS011;40230;41.860;21.940;2022-11-14T16:56:44;126.40;;;102.20;;
54332;SDS011;40230;41.860;21.940;2022-11-14T16:59:10;218.30;;;158.82;;
54332;SDS011;40230;41.860;21.940;2022-11-14T17:01:36;127.22;;;99.63;;
54332;SDS011;40230;41.860;21.940;2022-11-14T17:04:03;92.03;;;75.80;;
54332;SDS011;40230;41.860;21.940;2022-11-14T17:06:29;86.70;;;71.13;;
54332;SDS011;40230;41.860;21.940;2022-11-14T17:08:56;64.07;;;52.13;;
54332;SDS011;40230;41.860;21.940;2022-11-14T17:11:23;58.92;;;47.22;;